sensor_id;sensor_type;location;lat;lon;timestamp;P1;durP1;ratioP1;P2;durP2;ratioP2
21010;SDS011;10663;42.714;23.274;2024-03-02T10:13:35;46.63;;;31.92;;
21010;SDS011;10663;42.714;23.274;2024-03-02T10:15:06;45.05;;;33.35;;
21010;SDS011;10663;42.714;23.274;2024-03-02T10:16:38;46.85;;;33.65;;
21010;SDS011;10663;42.714;23.274;2024-03-02T10:18:12;45.97;;;32.30;;
21010;SDS011;10663;42.714;23.274;2024-03-02T10:19:43;45.00;;;32.35;;
21010;SDS011;10663;42.714;23.274;2024-03-02T10:21:15;92.72;;;47.88;;
21010;SDS011;10663;42.714;23.274;2024-03-02T10:22:45;49.63;;;34.47;;
21010;SDS011;10663;42.714;23.274;2024-03-02T10:24:20;48.67;;;33.43;;
21010;SDS011;10663;42.714;23.274;2024-03-02T10:25:51;48.47;;;34.58;;
21010;SDS011;10663;42.714;23.274;2024-03-02T10:27:25;49.33;;;36.22;;
21010;SDS011;10663;42.714;23.274;2024-03-02T10:28:57;48.90;;;33.97;;
21010;SDS011;10663;42.714;23.274;2024-03-02T10:30:29;48.03;;;34.47;;
21010;SDS011;10663;42.714;23.274;2024-03-02T10:32:01;47.23;;;34.13;;
21010;SDS011;10663;42.714;23.274;2024-03-02T10:33:32;53.92;;;36.42;;
21010;SDS011;10663;42.714;23.274;2024-03-02T10:35:03;50.60;;;35.20;;
21010;SDS011;10663;42.714;23.274;2024-03-02T10:36:35;50.45;;;36.13;;
21010;SDS011;10663;42.714;23.274;2024-03-02T10:38:07;51.67;;;36.20;;
21010;SDS011;10663;42.714;23.274;2024-03-02T10:39:41;49.47;;;35.50;;
21010;SDS011;10663;42.714;23.274;2024-03-02T10:41:16;49.75;;;35.47;;
21010;SDS011;10663;42.714;23.274;2024-03-02T10:42:49;51.70;;;36.60;;
21010;SDS011;10663;42.714;23.274;2024-03-02T10:44:22;51.65;;;34.20;;
21010;SDS011;10663;42.714;23.274;2024-03-02T10:45:55;50.28;;;35.08;;
21010;SDS011;10663;42.714;23.274;2024-03-02T10:47:28;50.08;;;35.10;;
21010;SDS011;10663;42.714;23.274;2024-03-02T10:49:02;47.50;;;33.35;;
21010;SDS011;10663;42.714;23.274;2024-03-02T10:50:34;47.90;;;32.92;;
21010;SDS011;10663;42.714;23.274;2024-03-02T10:52:05;48.60;;;34.40;;
21010;SDS011;10663;42.714;23.274;2024-03-02T10:53:36;49.08;;;33.38;;
21010;SDS011;10663;42.714;23.274;2024-03-02T10:55:07;48.13;;;34.35;;
21010;SDS011;10663;42.714;23.274;2024-03-02T10:59:52;55.47;;;38.40;;
21010;SDS011;10663;42.714;23.274;2024-03-02T11:01:26;47.42;;;33.70;;
21010;SDS011;10663;42.714;23.274;2024-03-02T11:13:58;42.15;;;29.83;;
21010;SDS011;10663;42.714;23.274;2024-03-02T11:15:39;39.30;;;28.13;;
21010;SDS011;10663;42.714;23.274;2024-03-02T11:17:10;41.87;;;29.40;;
21010;SDS011;10663;42.714;23.274;2024-03-02T11:18:43;41.75;;;29.58;;
21010;SDS011;10663;42.714;23.274;2024-03-02T11:20:14;39.10;;;27.60;;
21010;SDS011;10663;42.714;23.274;2024-03-02T11:21:45;40.80;;;29.15;;
21010;SDS011;10663;42.714;23.274;2024-03-02T11:23:17;39.53;;;28.55;;
21010;SDS011;10663;42.714;23.274;2024-03-02T11:24:51;40.38;;;29.13;;
21010;SDS011;10663;42.714;23.274;2024-03-02T11:26:22;39.20;;;30.10;;
21010;SDS011;10663;42.714;23.274;2024-03-02T11:31:11;38.78;;;28.50;;
21010;SDS011;10663;42.714;23.274;2024-03-02T11:32:42;40.63;;;29.25;;
21010;SDS011;10663;42.714;23.274;2024-03-02T11:34:31;37.67;;;28.60;;
21010;SDS011;10663;42.714;23.274;2024-03-02T11:36:08;39.92;;;29.73;;
21010;SDS011;10663;42.714;23.274;2024-03-02T11:37:39;38.30;;;28.70;;
21010;SDS011;10663;42.714;23.274;2024-03-02T11:39:10;35.88;;;27.42;;
21010;SDS011;10663;42.714;23.274;2024-03-02T11:40:40;38.30;;;28.07;;
21010;SDS011;10663;42.714;23.274;2024-03-02T11:42:12;35.05;;;26.75;;
21010;SDS011;10663;42.714;23.274;2024-03-02T11:43:45;36.60;;;27.38;;
21010;SDS011;10663;42.714;23.274;2024-03-02T11:45:16;38.07;;;28.03;;
21010;SDS011;10663;42.714;23.274;2024-03-02T11:47:00;36.35;;;27.50;;
21010;SDS011;10663;42.714;23.274;2024-03-02T11:48:32;38.13;;;27.67;;
21010;SDS011;10663;42.714;23.274;2024-03-02T11:50:05;38.03;;;28.47;;
21010;SDS011;10663;42.714;23.274;2024-03-02T11:51:37;39.97;;;29.75;;
21010;SDS011;10663;42.714;23.274;2024-03-02T11:53:20;36.10;;;26.70;;
21010;SDS011;10663;42.714;23.274;2024-03-02T11:54:51;33.53;;;26.38;;
21010;SDS011;10663;42.714;23.274;2024-03-02T11:56:22;34.60;;;26.90;;
21010;SDS011;10663;42.714;23.274;2024-03-02T11:57:55;35.83;;;26.33;;
21010;SDS011;10663;42.714;23.274;2024-03-02T11:59:27;35.53;;;26.50;;
21010;SDS011;10663;42.714;23.274;2024-03-02T12:00:59;36.10;;;26.83;;
21010;SDS011;10663;42.714;23.274;2024-03-02T12:02:30;34.17;;;25.13;;
21010;SDS011;10663;42.714;23.274;2024-03-02T12:04:01;34.88;;;26.35;;
21010;SDS011;10663;42.714;23.274;2024-03-02T12:05:34;37.25;;;26.38;;
21010;SDS011;10663;42.714;23.274;2024-03-02T12:07:05;36.20;;;26.65;;
21010;SDS011;10663;42.714;23.274;2024-03-02T12:08:36;36.65;;;27.65;;
21010;SDS011;10663;42.714;23.274;2024-03-02T12:10:08;40.63;;;27.33;;
21010;SDS011;10663;42.714;23.274;2024-03-02T12:11:39;34.72;;;26.55;;
21010;SDS011;10663;42.714;23.274;2024-03-02T12:13:09;33.50;;;25.07;;
21010;SDS011;10663;42.714;23.274;2024-03-02T12:14:49;34.65;;;25.80;;
21010;SDS011;10663;42.714;23.274;2024-03-02T12:16:24;32.35;;;24.42;;
21010;SDS011;10663;42.714;23.274;2024-03-02T12:17:56;36.05;;;26.25;;
21010;SDS011;10663;42.714;23.274;2024-03-02T12:19:27;34.72;;;25.58;;
21010;SDS011;10663;42.714;23.274;2024-03-02T12:21:00;31.48;;;23.45;;
21010;SDS011;10663;42.714;23.274;2024-03-02T12:22:32;32.50;;;24.57;;
21010;SDS011;10663;42.714;23.274;2024-03-02T12:24:03;30.70;;;23.80;;
21010;SDS011;10663;42.714;23.274;2024-03-02T12:25:34;32.75;;;23.65;;
21010;SDS011;10663;42.714;23.274;2024-03-02T12:27:08;33.15;;;24.88;;
21010;SDS011;10663;42.714;23.274;2024-03-02T12:28:38;34.67;;;24.92;;
21010;SDS011;10663;42.714;23.274;2024-03-02T12:30:09;32.78;;;25.20;;
21010;SDS011;10663;42.714;23.274;2024-03-02T12:31:42;33.90;;;25.33;;
21010;SDS011;10663;42.714;23.274;2024-03-02T12:33:15;31.33;;;24.50;;
21010;SDS011;10663;42.714;23.274;2024-03-02T12:34:46;32.67;;;25.58;;
21010;SDS011;10663;42.714;23.274;2024-03-02T12:36:18;32.92;;;24.85;;
21010;SDS011;10663;42.714;23.274;2024-03-02T12:37:49;31.52;;;25.27;;
21010;SDS011;10663;42.714;23.274;2024-03-02T12:39:21;34.03;;;26.25;;
21010;SDS011;10663;42.714;23.274;2024-03-02T12:40:53;31.90;;;25.33;;
21010;SDS011;10663;42.714;23.274;2024-03-02T12:42:23;32.20;;;25.13;;
21010;SDS011;10663;42.714;23.274;2024-03-02T12:43:55;33.13;;;25.25;;
21010;SDS011;10663;42.714;23.274;2024-03-02T12:45:25;33.25;;;24.48;;
21010;SDS011;10663;42.714;23.274;2024-03-02T12:46:57;32.20;;;24.45;;
21010;SDS011;10663;42.714;23.274;2024-03-02T12:48:27;31.23;;;23.90;;
21010;SDS011;10663;42.714;23.274;2024-03-02T12:49:58;34.05;;;25.80;;
21010;SDS011;10663;42.714;23.274;2024-03-02T12:51:29;33.80;;;25.00;;
21010;SDS011;10663;42.714;23.274;2024-03-02T12:53:00;34.53;;;26.35;;
21010;SDS011;10663;42.714;23.274;2024-03-02T12:54:31;32.58;;;25.23;;
21010;SDS011;10663;42.714;23.274;2024-03-02T12:56:03;33.25;;;24.98;;
21010;SDS011;10663;42.714;23.274;2024-03-02T12:57:35;35.10;;;25.92;;
21010;SDS011;10663;42.714;23.274;2024-03-02T12:59:06;33.17;;;25.57;;
21010;SDS011;10663;42.714;23.274;2024-03-02T13:00:36;35.30;;;24.73;;
21010;SDS011;10663;42.714;23.274;2024-03-02T13:02:07;32.17;;;25.35;;
21010;SDS011;10663;42.714;23.274;2024-03-02T13:03:38;31.13;;;24.50;;
21010;SDS011;10663;42.714;23.274;2024-03-02T13:05:09;35.05;;;25.77;;
21010;SDS011;10663;42.714;23.274;2024-03-02T13:06:41;30.88;;;23.67;;
21010;SDS011;10663;42.714;23.274;2024-03-02T13:08:12;33.55;;;25.02;;
21010;SDS011;10663;42.714;23.274;2024-03-02T13:09:43;32.65;;;25.75;;
21010;SDS011;10663;42.714;23.274;2024-03-02T13:11:16;32.60;;;24.92;;
21010;SDS011;10663;42.714;23.274;2024-03-02T13:12:47;33.25;;;25.90;;
21010;SDS011;10663;42.714;23.274;2024-03-02T13:14:17;34.43;;;25.07;;
21010;SDS011;10663;42.714;23.274;2024-03-02T13:15:48;32.72;;;25.27;;
21010;SDS011;10663;42.714;23.274;2024-03-02T13:17:19;33.72;;;26.13;;
21010;SDS011;10663;42.714;23.274;2024-03-02T13:18:50;33.72;;;27.05;;
21010;SDS011;10663;42.714;23.274;2024-03-02T13:20:21;33.05;;;25.63;;
21010;SDS011;10663;42.714;23.274;2024-03-02T13:21:51;32.37;;;25.87;;
21010;SDS011;10663;42.714;23.274;2024-03-02T13:23:22;32.83;;;25.23;;
21010;SDS011;10663;42.714;23.274;2024-03-02T13:24:53;33.72;;;26.40;;
21010;SDS011;10663;42.714;23.274;2024-03-02T13:26:27;37.30;;;26.93;;
21010;SDS011;10663;42.714;23.274;2024-03-02T13:27:58;35.00;;;26.40;;
21010;SDS011;10663;42.714;23.274;2024-03-02T13:29:29;35.78;;;26.55;;
21010;SDS011;10663;42.714;23.274;2024-03-02T13:31:00;34.97;;;25.83;;
21010;SDS011;10663;42.714;23.274;2024-03-02T13:32:31;35.15;;;26.08;;
21010;SDS011;10663;42.714;23.274;2024-03-02T13:34:01;35.78;;;26.15;;
21010;SDS011;10663;42.714;23.274;2024-03-02T13:35:32;34.77;;;26.13;;
21010;SDS011;10663;42.714;23.274;2024-03-02T13:37:03;33.03;;;25.83;;
21010;SDS011;10663;42.714;23.274;2024-03-02T13:38:35;33.43;;;24.83;;
21010;SDS011;10663;42.714;23.274;2024-03-02T13:40:06;34.33;;;26.30;;
21010;SDS011;10663;42.714;23.274;2024-03-02T13:41:43;33.03;;;25.58;;
21010;SDS011;10663;42.714;23.274;2024-03-02T13:43:22;33.47;;;26.05;;
21010;SDS011;10663;42.714;23.274;2024-03-02T13:44:54;33.53;;;25.00;;
21010;SDS011;10663;42.714;23.274;2024-03-02T13:46:24;31.15;;;24.42;;
21010;SDS011;10663;42.714;23.274;2024-03-02T13:47:55;32.07;;;24.77;;
21010;SDS011;10663;42.714;23.274;2024-03-02T13:49:26;32.25;;;25.55;;
21010;SDS011;10663;42.714;23.274;2024-03-02T13:51:04;33.63;;;26.08;;
21010;SDS011;10663;42.714;23.274;2024-03-02T13:52:34;33.85;;;26.63;;
21010;SDS011;10663;42.714;23.274;2024-03-02T13:54:05;36.03;;;26.43;;
21010;SDS011;10663;42.714;23.274;2024-03-02T13:55:37;31.85;;;25.52;;
21010;SDS011;10663;42.714;23.274;2024-03-02T13:57:08;30.92;;;25.27;;
21010;SDS011;10663;42.714;23.274;2024-03-02T13:58:39;33.10;;;25.38;;
21010;SDS011;10663;42.714;23.274;2024-03-02T14:00:10;34.40;;;26.30;;
21010;SDS011;10663;42.714;23.274;2024-03-02T14:01:44;33.08;;;25.58;;
21010;SDS011;10663;42.714;23.274;2024-03-02T14:03:14;34.92;;;26.60;;
21010;SDS011;10663;42.714;23.274;2024-03-02T14:04:46;33.63;;;24.63;;
21010;SDS011;10663;42.714;23.274;2024-03-02T14:06:20;30.48;;;23.70;;
21010;SDS011;10663;42.714;23.274;2024-03-02T14:07:50;31.85;;;25.58;;
21010;SDS011;10663;42.714;23.274;2024-03-02T14:09:21;32.50;;;24.53;;
21010;SDS011;10663;42.714;23.274;2024-03-02T14:10:52;33.27;;;25.27;;
21010;SDS011;10663;42.714;23.274;2024-03-02T14:12:22;32.80;;;24.38;;
21010;SDS011;10663;42.714;23.274;2024-03-02T14:13:53;33.33;;;25.07;;
21010;SDS011;10663;42.714;23.274;2024-03-02T14:15:24;31.15;;;24.20;;
21010;SDS011;10663;42.714;23.274;2024-03-02T14:16:55;32.40;;;24.67;;
21010;SDS011;10663;42.714;23.274;2024-03-02T14:18:26;30.90;;;23.90;;
21010;SDS011;10663;42.714;23.274;2024-03-02T14:19:57;32.22;;;25.02;;
21010;SDS011;10663;42.714;23.274;2024-03-02T14:21:29;31.25;;;24.50;;
21010;SDS011;10663;42.714;23.274;2024-03-02T14:23:00;31.65;;;24.58;;
21010;SDS011;10663;42.714;23.274;2024-03-02T14:24:33;32.75;;;25.33;;
21010;SDS011;10663;42.714;23.274;2024-03-02T14:26:03;32.20;;;24.35;;
21010;SDS011;10663;42.714;23.274;2024-03-02T14:27:34;33.20;;;25.03;;
21010;SDS011;10663;42.714;23.274;2024-03-02T14:29:06;30.77;;;24.88;;
21010;SDS011;10663;42.714;23.274;2024-03-02T14:30:37;32.03;;;25.30;;
21010;SDS011;10663;42.714;23.274;2024-03-02T14:32:08;33.17;;;25.67;;
21010;SDS011;10663;42.714;23.274;2024-03-02T14:33:38;32.28;;;24.58;;
21010;SDS011;10663;42.714;23.274;2024-03-02T14:35:09;33.25;;;25.00;;
21010;SDS011;10663;42.714;23.274;2024-03-02T14:36:40;33.13;;;24.70;;
21010;SDS011;10663;42.714;23.274;2024-03-02T14:38:13;32.75;;;24.38;;
21010;SDS011;10663;42.714;23.274;2024-03-02T14:39:45;30.77;;;23.75;;
21010;SDS011;10663;42.714;23.274;2024-03-02T14:41:16;30.67;;;23.73;;
21010;SDS011;10663;42.714;23.274;2024-03-02T14:42:46;32.00;;;24.02;;
21010;SDS011;10663;42.714;23.274;2024-03-02T14:44:18;32.03;;;24.10;;
21010;SDS011;10663;42.714;23.274;2024-03-02T14:45:49;30.47;;;23.73;;
21010;SDS011;10663;42.714;23.274;2024-03-02T14:47:19;30.60;;;23.55;;
21010;SDS011;10663;42.714;23.274;2024-03-02T14:48:50;33.73;;;25.60;;
21010;SDS011;10663;42.714;23.274;2024-03-02T14:50:21;33.00;;;24.65;;
21010;SDS011;10663;42.714;23.274;2024-03-02T14:51:52;31.73;;;24.70;;
21010;SDS011;10663;42.714;23.274;2024-03-02T14:53:23;30.75;;;24.75;;
21010;SDS011;10663;42.714;23.274;2024-03-02T14:54:53;34.05;;;26.27;;
21010;SDS011;10663;42.714;23.274;2024-03-02T14:56:24;37.25;;;29.00;;
21010;SDS011;10663;42.714;23.274;2024-03-02T14:57:55;39.33;;;30.93;;
21010;SDS011;10663;42.714;23.274;2024-03-02T14:59:26;35.85;;;27.17;;
21010;SDS011;10663;42.714;23.274;2024-03-02T15:00:58;31.63;;;25.95;;
21010;SDS011;10663;42.714;23.274;2024-03-02T15:02:29;34.85;;;26.65;;
21010;SDS011;10663;42.714;23.274;2024-03-02T15:03:59;36.30;;;27.53;;
21010;SDS011;10663;42.714;23.274;2024-03-02T15:05:30;37.00;;;28.10;;
21010;SDS011;10663;42.714;23.274;2024-03-02T15:07:01;31.88;;;26.05;;
21010;SDS011;10663;42.714;23.274;2024-03-02T15:08:31;33.33;;;26.40;;
21010;SDS011;10663;42.714;23.274;2024-03-02T15:10:02;33.38;;;26.63;;
21010;SDS011;10663;42.714;23.274;2024-03-02T15:11:34;33.33;;;26.20;;
21010;SDS011;10663;42.714;23.274;2024-03-02T15:13:05;37.15;;;27.30;;
21010;SDS011;10663;42.714;23.274;2024-03-02T15:14:36;36.33;;;28.88;;
21010;SDS011;10663;42.714;23.274;2024-03-02T15:16:08;37.45;;;28.38;;
21010;SDS011;10663;42.714;23.274;2024-03-02T15:17:39;38.92;;;29.35;;
21010;SDS011;10663;42.714;23.274;2024-03-02T15:19:10;39.83;;;30.92;;
21010;SDS011;10663;42.714;23.274;2024-03-02T15:20:40;38.47;;;30.97;;
21010;SDS011;10663;42.714;23.274;2024-03-02T15:22:11;39.35;;;30.80;;
21010;SDS011;10663;42.714;23.274;2024-03-02T15:23:42;40.45;;;32.25;;
21010;SDS011;10663;42.714;23.274;2024-03-02T15:25:13;40.65;;;32.00;;
21010;SDS011;10663;42.714;23.274;2024-03-02T15:26:46;43.05;;;33.00;;
21010;SDS011;10663;42.714;23.274;2024-03-02T15:28:17;45.47;;;34.63;;
21010;SDS011;10663;42.714;23.274;2024-03-02T15:29:48;44.63;;;35.47;;
21010;SDS011;10663;42.714;23.274;2024-03-02T15:31:20;50.00;;;37.95;;
21010;SDS011;10663;42.714;23.274;2024-03-02T15:32:51;52.60;;;41.20;;
21010;SDS011;10663;42.714;23.274;2024-03-02T15:34:22;55.15;;;42.50;;
21010;SDS011;10663;42.714;23.274;2024-03-02T15:35:53;59.35;;;45.42;;
21010;SDS011;10663;42.714;23.274;2024-03-02T15:37:24;55.20;;;44.17;;
21010;SDS011;10663;42.714;23.274;2024-03-02T15:38:54;57.03;;;44.87;;
21010;SDS011;10663;42.714;23.274;2024-03-02T15:40:26;53.63;;;41.88;;
21010;SDS011;10663;42.714;23.274;2024-03-02T15:41:56;54.10;;;40.30;;
21010;SDS011;10663;42.714;23.274;2024-03-02T15:43:27;50.92;;;39.72;;
21010;SDS011;10663;42.714;23.274;2024-03-02T15:44:58;51.45;;;39.17;;
21010;SDS011;10663;42.714;23.274;2024-03-02T15:46:29;54.58;;;40.55;;
21010;SDS011;10663;42.714;23.274;2024-03-02T15:48:00;55.10;;;42.33;;
21010;SDS011;10663;42.714;23.274;2024-03-02T15:49:33;55.70;;;42.50;;
21010;SDS011;10663;42.714;23.274;2024-03-02T15:51:04;52.57;;;41.63;;
21010;SDS011;10663;42.714;23.274;2024-03-02T15:52:35;53.20;;;39.92;;
21010;SDS011;10663;42.714;23.274;2024-03-02T15:54:06;52.07;;;41.00;;
21010;SDS011;10663;42.714;23.274;2024-03-02T15:55:38;53.47;;;40.55;;
21010;SDS011;10663;42.714;23.274;2024-03-02T15:57:09;50.67;;;39.70;;
21010;SDS011;10663;42.714;23.274;2024-03-02T15:58:40;51.17;;;39.42;;
21010;SDS011;10663;42.714;23.274;2024-03-02T16:00:11;53.05;;;39.17;;
21010;SDS011;10663;42.714;23.274;2024-03-02T16:01:42;50.83;;;37.30;;
21010;SDS011;10663;42.714;23.274;2024-03-02T16:03:13;46.70;;;37.27;;
21010;SDS011;10663;42.714;23.274;2024-03-02T16:04:44;51.65;;;38.92;;
21010;SDS011;10663;42.714;23.274;2024-03-02T16:06:15;55.58;;;39.40;;
21010;SDS011;10663;42.714;23.274;2024-03-02T16:07:45;46.87;;;35.77;;
21010;SDS011;10663;42.714;23.274;2024-03-02T16:09:16;44.80;;;34.37;;
21010;SDS011;10663;42.714;23.274;2024-03-02T16:10:46;44.10;;;34.20;;
21010;SDS011;10663;42.714;23.274;2024-03-02T16:12:17;44.43;;;34.63;;
21010;SDS011;10663;42.714;23.274;2024-03-02T16:13:48;49.03;;;36.10;;
21010;SDS011;10663;42.714;23.274;2024-03-02T16:15:19;49.45;;;36.45;;
21010;SDS011;10663;42.714;23.274;2024-03-02T16:16:49;48.33;;;34.83;;
21010;SDS011;10663;42.714;23.274;2024-03-02T16:18:20;45.37;;;33.33;;
21010;SDS011;10663;42.714;23.274;2024-03-02T16:19:51;41.90;;;31.90;;
21010;SDS011;10663;42.714;23.274;2024-03-02T16:21:21;40.85;;;31.50;;
21010;SDS011;10663;42.714;23.274;2024-03-02T16:22:55;40.67;;;29.42;;
21010;SDS011;10663;42.714;23.274;2024-03-02T16:24:26;39.17;;;30.63;;
21010;SDS011;10663;42.714;23.274;2024-03-02T16:25:56;37.42;;;29.23;;
21010;SDS011;10663;42.714;23.274;2024-03-02T16:27:27;38.90;;;29.42;;
21010;SDS011;10663;42.714;23.274;2024-03-02T16:28:58;36.87;;;28.27;;
21010;SDS011;10663;42.714;23.274;2024-03-02T16:30:29;38.30;;;28.67;;
21010;SDS011;10663;42.714;23.274;2024-03-02T16:31:59;36.20;;;27.60;;
21010;SDS011;10663;42.714;23.274;2024-03-02T16:33:31;36.77;;;28.33;;
21010;SDS011;10663;42.714;23.274;2024-03-02T16:35:01;37.97;;;27.43;;
21010;SDS011;10663;42.714;23.274;2024-03-02T16:36:32;36.38;;;27.25;;
21010;SDS011;10663;42.714;23.274;2024-03-02T16:38:04;36.67;;;26.92;;
21010;SDS011;10663;42.714;23.274;2024-03-02T16:39:35;34.85;;;26.58;;
21010;SDS011;10663;42.714;23.274;2024-03-02T16:41:05;34.63;;;26.27;;
21010;SDS011;10663;42.714;23.274;2024-03-02T16:42:37;33.20;;;25.27;;
21010;SDS011;10663;42.714;23.274;2024-03-02T16:44:08;33.43;;;27.17;;
21010;SDS011;10663;42.714;23.274;2024-03-02T16:45:38;33.67;;;25.73;;
21010;SDS011;10663;42.714;23.274;2024-03-02T16:47:09;35.78;;;26.92;;
21010;SDS011;10663;42.714;23.274;2024-03-02T16:48:41;33.77;;;25.67;;
21010;SDS011;10663;42.714;23.274;2024-03-02T16:50:11;37.90;;;28.23;;
21010;SDS011;10663;42.714;23.274;2024-03-02T16:51:42;40.13;;;28.92;;
21010;SDS011;10663;42.714;23.274;2024-03-02T16:53:13;37.85;;;29.15;;
21010;SDS011;10663;42.714;23.274;2024-03-02T16:54:49;37.20;;;28.60;;
21010;SDS011;10663;42.714;23.274;2024-03-02T16:56:20;37.58;;;28.98;;
21010;SDS011;10663;42.714;23.274;2024-03-02T16:57:51;38.17;;;29.67;;
21010;SDS011;10663;42.714;23.274;2024-03-02T16:59:21;35.43;;;27.63;;
21010;SDS011;10663;42.714;23.274;2024-03-02T17:00:52;36.97;;;27.50;;
21010;SDS011;10663;42.714;23.274;2024-03-02T17:02:23;34.78;;;27.13;;
21010;SDS011;10663;42.714;23.274;2024-03-02T17:03:55;40.05;;;29.30;;
21010;SDS011;10663;42.714;23.274;2024-03-02T17:05:26;40.00;;;30.23;;
21010;SDS011;10663;42.714;23.274;2024-03-02T17:06:56;42.17;;;32.35;;
21010;SDS011;10663;42.714;23.274;2024-03-02T17:08:27;35.73;;;28.40;;
21010;SDS011;10663;42.714;23.274;2024-03-02T17:09:58;37.57;;;27.17;;
21010;SDS011;10663;42.714;23.274;2024-03-02T17:11:29;35.53;;;27.47;;
21010;SDS011;10663;42.714;23.274;2024-03-02T17:13:01;36.03;;;26.88;;
21010;SDS011;10663;42.714;23.274;2024-03-02T17:14:31;34.50;;;27.20;;
21010;SDS011;10663;42.714;23.274;2024-03-02T17:16:02;35.70;;;25.67;;
21010;SDS011;10663;42.714;23.274;2024-03-02T17:17:33;35.30;;;26.80;;
21010;SDS011;10663;42.714;23.274;2024-03-02T17:19:03;33.65;;;26.58;;
21010;SDS011;10663;42.714;23.274;2024-03-02T17:20:34;40.15;;;29.23;;
21010;SDS011;10663;42.714;23.274;2024-03-02T17:22:05;39.23;;;29.90;;
21010;SDS011;10663;42.714;23.274;2024-03-02T17:23:35;42.72;;;30.73;;
21010;SDS011;10663;42.714;23.274;2024-03-02T17:25:06;41.80;;;30.40;;
21010;SDS011;10663;42.714;23.274;2024-03-02T17:26:38;44.10;;;31.00;;
21010;SDS011;10663;42.714;23.274;2024-03-02T17:28:18;46.97;;;33.08;;
21010;SDS011;10663;42.714;23.274;2024-03-02T17:29:59;44.42;;;31.85;;
21010;SDS011;10663;42.714;23.274;2024-03-02T17:31:29;47.23;;;33.90;;
21010;SDS011;10663;42.714;23.274;2024-03-02T17:33:00;43.17;;;31.40;;
21010;SDS011;10663;42.714;23.274;2024-03-02T17:34:31;44.25;;;32.40;;
21010;SDS011;10663;42.714;23.274;2024-03-02T17:36:02;43.13;;;31.60;;
21010;SDS011;10663;42.714;23.274;2024-03-02T17:37:34;40.17;;;29.92;;
21010;SDS011;10663;42.714;23.274;2024-03-02T17:39:05;38.97;;;29.70;;
21010;SDS011;10663;42.714;23.274;2024-03-02T17:40:36;41.30;;;30.47;;
21010;SDS011;10663;42.714;23.274;2024-03-02T17:42:07;39.70;;;30.63;;
21010;SDS011;10663;42.714;23.274;2024-03-02T17:43:37;39.33;;;28.00;;
21010;SDS011;10663;42.714;23.274;2024-03-02T17:45:09;39.03;;;29.33;;
21010;SDS011;10663;42.714;23.274;2024-03-02T17:46:40;40.07;;;28.27;;
21010;SDS011;10663;42.714;23.274;2024-03-02T17:48:10;38.13;;;28.50;;
21010;SDS011;10663;42.714;23.274;2024-03-02T17:49:42;38.85;;;29.13;;
21010;SDS011;10663;42.714;23.274;2024-03-02T17:51:12;36.08;;;27.58;;
21010;SDS011;10663;42.714;23.274;2024-03-02T17:52:43;38.15;;;28.17;;
21010;SDS011;10663;42.714;23.274;2024-03-02T17:54:14;45.08;;;31.45;;
21010;SDS011;10663;42.714;23.274;2024-03-02T17:55:45;43.08;;;32.67;;
21010;SDS011;10663;42.714;23.274;2024-03-02T17:57:16;45.67;;;33.78;;
21010;SDS011;10663;42.714;23.274;2024-03-02T17:58:47;49.28;;;37.75;;
21010;SDS011;10663;42.714;23.274;2024-03-02T18:00:20;54.55;;;41.25;;
21010;SDS011;10663;42.714;23.274;2024-03-02T18:01:57;52.38;;;40.08;;
21010;SDS011;10663;42.714;23.274;2024-03-02T18:03:29;54.60;;;41.00;;
21010;SDS011;10663;42.714;23.274;2024-03-02T18:05:00;56.08;;;42.13;;
21010;SDS011;10663;42.714;23.274;2024-03-02T18:06:32;57.83;;;42.85;;
21010;SDS011;10663;42.714;23.274;2024-03-02T18:08:05;54.80;;;39.83;;
21010;SDS011;10663;42.714;23.274;2024-03-02T18:09:37;53.28;;;38.90;;
21010;SDS011;10663;42.714;23.274;2024-03-02T18:11:09;55.15;;;39.25;;
21010;SDS011;10663;42.714;23.274;2024-03-02T18:12:44;54.00;;;38.78;;
21010;SDS011;10663;42.714;23.274;2024-03-02T18:14:16;53.17;;;40.00;;
21010;SDS011;10663;42.714;23.274;2024-03-02T18:15:48;54.10;;;38.53;;
21010;SDS011;10663;42.714;23.274;2024-03-02T18:17:20;49.42;;;37.58;;
21010;SDS011;10663;42.714;23.274;2024-03-02T18:18:52;62.92;;;45.20;;
21010;SDS011;10663;42.714;23.274;2024-03-02T18:20:24;67.25;;;48.55;;
21010;SDS011;10663;42.714;23.274;2024-03-02T18:21:59;45.55;;;33.67;;
21010;SDS011;10663;42.714;23.274;2024-03-02T18:23:36;44.53;;;35.13;;
21010;SDS011;10663;42.714;23.274;2024-03-02T18:25:12;43.70;;;31.45;;
21010;SDS011;10663;42.714;23.274;2024-03-02T18:26:44;44.85;;;34.30;;
21010;SDS011;10663;42.714;23.274;2024-03-02T18:28:22;40.35;;;30.35;;
21010;SDS011;10663;42.714;23.274;2024-03-02T18:29:53;43.58;;;31.73;;
21010;SDS011;10663;42.714;23.274;2024-03-02T18:31:28;44.27;;;32.73;;
21010;SDS011;10663;42.714;23.274;2024-03-02T18:33:04;46.70;;;34.80;;
21010;SDS011;10663;42.714;23.274;2024-03-02T18:34:39;46.22;;;35.35;;
21010;SDS011;10663;42.714;23.274;2024-03-02T18:36:11;43.90;;;33.87;;
21010;SDS011;10663;42.714;23.274;2024-03-02T18:37:43;42.90;;;33.47;;
21010;SDS011;10663;42.714;23.274;2024-03-02T18:39:16;46.15;;;33.17;;
21010;SDS011;10663;42.714;23.274;2024-03-02T18:40:56;42.63;;;32.70;;
21010;SDS011;10663;42.714;23.274;2024-03-02T18:42:28;43.80;;;33.23;;
21010;SDS011;10663;42.714;23.274;2024-03-02T18:44:01;42.58;;;31.95;;
21010;SDS011;10663;42.714;23.274;2024-03-02T18:45:34;45.77;;;34.47;;
21010;SDS011;10663;42.714;23.274;2024-03-02T18:47:06;47.30;;;35.13;;
21010;SDS011;10663;42.714;23.274;2024-03-02T18:48:37;50.38;;;37.38;;
21010;SDS011;10663;42.714;23.274;2024-03-02T18:50:09;51.53;;;37.45;;
21010;SDS011;10663;42.714;23.274;2024-03-02T18:51:41;53.53;;;38.45;;
21010;SDS011;10663;42.714;23.274;2024-03-02T18:53:12;50.53;;;36.70;;
21010;SDS011;10663;42.714;23.274;2024-03-02T18:54:44;47.47;;;36.00;;
21010;SDS011;10663;42.714;23.274;2024-03-02T18:56:16;48.83;;;38.08;;
21010;SDS011;10663;42.714;23.274;2024-03-02T18:57:50;55.80;;;40.28;;
21010;SDS011;10663;42.714;23.274;2024-03-02T18:59:21;61.33;;;44.22;;
21010;SDS011;10663;42.714;23.274;2024-03-02T19:00:54;56.80;;;41.73;;
21010;SDS011;10663;42.714;23.274;2024-03-02T19:02:26;62.17;;;43.63;;
21010;SDS011;10663;42.714;23.274;2024-03-02T19:03:58;60.13;;;43.88;;
21010;SDS011;10663;42.714;23.274;2024-03-02T19:05:29;62.35;;;44.25;;
21010;SDS011;10663;42.714;23.274;2024-03-02T19:07:00;63.23;;;44.53;;
21010;SDS011;10663;42.714;23.274;2024-03-02T19:08:31;58.93;;;43.40;;
21010;SDS011;10663;42.714;23.274;2024-03-02T19:10:02;62.60;;;44.50;;
21010;SDS011;10663;42.714;23.274;2024-03-02T19:11:34;63.80;;;43.20;;
21010;SDS011;10663;42.714;23.274;2024-03-02T19:13:05;60.53;;;43.47;;
21010;SDS011;10663;42.714;23.274;2024-03-02T19:14:36;56.88;;;41.10;;
21010;SDS011;10663;42.714;23.274;2024-03-02T19:16:13;58.85;;;42.40;;
21010;SDS011;10663;42.714;23.274;2024-03-02T19:17:45;63.08;;;45.00;;
21010;SDS011;10663;42.714;23.274;2024-03-02T19:19:15;57.42;;;40.92;;